Time;durP1;ratioP1;P1;durP2;ratioP2;P2;SDS_P1;SDS_P2;PMS_P1;PMS_P2;Temp;Humidity;BMP_temperature;BMP_pressure;BME280_temperature;BME280_humidity;BME280_pressure;Samples;Min_cycle;Max_cycle;Signal;HPM_P1;HPM_P2
2022/01/18 00:01:54;;;;;;;15.57;5.53;;;;;;;;;;5026493;28;20405;-54
2022/01/18 00:04:20;;;;;;;14.93;3.88;;;;;;;;;;5007565;28;20095;-56
2022/01/18 00:06:49;;;;;;;15.90;4.38;;;;;;;;;;5025125;28;20091;-55
2022/01/18 00:09:19;;;;;;;21.73;4.65;;;;;;;;;;5027051;28;20072;-55
2022/01/18 00:11:49;;;;;;;17.23;4.07;;;;;;;;;;5030516;28;20057;-52
2022/01/18 00:14:27;;;;;;;24.13;4.30;;;;;;;;;;5026346;28;20041;-51
2022/01/18 00:17:17;;;;;;;15.15;4.40;;;;;;;;;;5027983;28;20100;-51
2022/01/18 00:19:53;;;;;;;16.27;4.00;;;;;;;;;;5026889;28;20025;-54
2022/01/18 00:22:19;;;;;;;13.88;4.13;;;;;;;;;;5026259;28;20055;-52
2022/01/18 00:24:44;;;;;;;18.80;4.05;;;;;;;;;;5026799;28;20025;-56
2022/01/18 00:27:13;;;;;;;14.82;3.33;;;;;;;;;;5026117;28;20047;-56
2022/01/18 00:29:46;;;;;;;14.77;4.30;;;;;;;;;;5027900;28;20115;-53
2022/01/18 00:32:39;;;;;;;15.55;4.05;;;;;;;;;;5025850;28;20041;-53
2022/01/18 00:35:04;;;;;;;15.07;3.95;;;;;;;;;;5026472;28;20061;-52
2022/01/18 00:37:36;;;;;;;12.23;3.85;;;;;;;;;;5026895;28;20119;-55
2022/01/18 00:40:04;;;;;;;15.80;3.42;;;;;;;;;;5027334;28;20045;-52
2022/01/18 00:42:30;;;;;;;12.05;3.70;;;;;;;;;;5025020;28;20033;-55
2022/01/18 00:44:55;;;;;;;11.23;3.17;;;;;;;;;;5028054;28;20022;-54
2022/01/18 00:47:21;;;;;;;18.35;4.13;;;;;;;;;;5024049;28;20063;-56
2022/01/18 00:49:48;;;;;;;15.07;3.67;;;;;;;;;;5027162;28;20038;-53
2022/01/18 00:52:17;;;;;;;12.20;3.42;;;;;;;;;;5024391;28;20055;-51
2022/01/18 00:54:45;;;;;;;13.90;3.13;;;;;;;;;;5028359;28;20025;-54
2022/01/18 00:57:11;;;;;;;15.35;3.80;;;;;;;;;;5024169;28;20044;-52
2022/01/18 00:59:40;;;;;;;13.93;4.03;;;;;;;;;;5027337;28;20026;-55
2022/01/18 01:02:05;;;;;;;14.25;3.55;;;;;;;;;;5023597;28;20026;-53
2022/01/18 01:04:35;;;;;;;20.58;3.83;;;;;;;;;;5027601;28;20025;-56
2022/01/18 01:07:00;;;;;;;13.57;3.20;;;;;;;;;;5025023;28;20025;-54
2022/01/18 01:09:26;;;;;;;12.13;3.42;;;;;;;;;;5025391;28;20037;-52
2022/01/18 01:11:52;;;;;;;11.88;3.45;;;;;;;;;;5025926;28;20040;-53
2022/01/18 01:14:22;;;;;;;16.98;4.00;;;;;;;;;;5024128;28;20033;-57
2022/01/18 01:16:54;;;;;;;16.02;3.88;;;;;;;;;;5022803;28;20059;-52
2022/01/18 01:45:48;;;;;;;11.65;3.00;;;;;;;;;;5025732;28;20440;-54
2022/01/18 01:48:14;;;;;;;11.82;3.00;;;;;;;;;;5024301;28;20478;-54
2022/01/18 01:53:25;;;;;;;15.10;3.03;;;;;;;;;;5024886;28;21917;-53
2022/01/18 01:55:52;;;;;;;15.75;3.28;;;;;;;;;;5024430;28;20033;-52
2022/01/18 01:58:20;;;;;;;12.38;2.90;;;;;;;;;;5024968;28;20083;-50
2022/01/18 02:00:53;;;;;;;12.57;2.78;;;;;;;;;;5024817;28;20033;-52
2022/01/18 02:03:19;;;;;;;15.05;3.08;;;;;;;;;;5023482;28;20029;-51
2022/01/18 02:05:45;;;;;;;13.85;3.83;;;;;;;;;;5020693;28;20072;-51
2022/01/18 02:08:14;;;;;;;14.15;3.33;;;;;;;;;;5021193;28;20482;-54
2022/01/18 02:10:41;;;;;;;16.83;2.97;;;;;;;;;;5020903;28;20121;-50
2022/01/18 02:13:08;;;;;;;12.85;2.78;;;;;;;;;;5023759;28;20037;-54
2022/01/18 02:15:39;;;;;;;15.27;3.28;;;;;;;;;;5020450;28;20490;-53
2022/01/18 02:23:32;;;;;;;10.48;3.25;;;;;;;;;;5023739;28;20032;-55
2022/01/18 02:25:58;;;;;;;12.82;3.47;;;;;;;;;;5022152;28;20430;-54
2022/01/18 02:28:26;;;;;;;18.90;3.40;;;;;;;;;;5024993;28;20061;-51
2022/01/18 02:30:52;;;;;;;10.43;3.10;;;;;;;;;;5022874;28;20040;-51
2022/01/18 02:33:18;;;;;;;17.80;3.50;;;;;;;;;;5024593;28;20037;-50
2022/01/18 02:35:46;;;;;;;10.60;3.20;;;;;;;;;;5022403;28;20051;-52
2022/01/18 02:38:12;;;;;;;13.68;3.13;;;;;;;;;;5021106;28;20036;-51
2022/01/18 02:40:38;;;;;;;17.92;5.22;;;;;;;;;;5021452;28;20102;-53
2022/01/18 02:45:54;;;;;;;15.38;3.10;;;;;;;;;;5022862;28;20047;-55
2022/01/18 02:48:21;;;;;;;12.57;2.75;;;;;;;;;;5021871;28;20040;-56
2022/01/18 02:50:47;;;;;;;11.15;3.10;;;;;;;;;;5022152;28;20041;-54
2022/01/18 02:53:16;;;;;;;14.85;3.40;;;;;;;;;;5019639;28;20054;-54
2022/01/18 02:55:43;;;;;;;14.40;3.35;;;;;;;;;;5022204;28;20033;-52
2022/01/18 02:58:10;;;;;;;11.70;2.88;;;;;;;;;;5024020;28;20207;-54
2022/01/18 03:03:33;;;;;;;14.95;2.88;;;;;;;;;;5010297;28;20037;-51
2022/01/18 03:06:00;;;;;;;12.23;3.15;;;;;;;;;;5021764;28;20017;-54
2022/01/18 03:08:27;;;;;;;13.55;3.60;;;;;;;;;;5019172;28;20049;-52
2022/01/18 03:10:52;;;;;;;19.75;4.55;;;;;;;;;;5020301;28;20096;-53
2022/01/18 03:13:18;;;;;;;11.57;3.55;;;;;;;;;;5017164;28;20464;-52
2022/01/18 03:15:44;;;;;;;17.23;4.07;;;;;;;;;;5021654;28;20036;-55
2022/01/18 03:18:10;;;;;;;17.65;4.50;;;;;;;;;;5020824;28;20026;-54
2022/01/18 03:20:36;;;;;;;17.70;5.15;;;;;;;;;;5023475;28;20029;-52
2022/01/18 03:23:07;;;;;;;19.73;6.50;;;;;;;;;;5003041;28;20014;-52
2022/01/18 03:28:06;;;;;;;14.98;5.05;;;;;;;;;;5022218;28;20039;-52
2022/01/18 03:30:38;;;;;;;17.90;4.97;;;;;;;;;;5021772;28;20698;-56
2022/01/18 03:33:05;;;;;;;17.25;5.00;;;;;;;;;;5019874;28;20109;-51
2022/01/18 03:35:31;;;;;;;19.02;5.18;;;;;;;;;;5021330;28;20025;-52
2022/01/18 03:37:56;;;;;;;13.70;4.45;;;;;;;;;;5020783;28;20099;-50
2022/01/18 03:40:22;;;;;;;13.25;3.60;;;;;;;;;;5020580;28;20021;-53
2022/01/18 03:42:49;;;;;;;13.35;3.80;;;;;;;;;;5021485;28;20029;-52
2022/01/18 03:45:19;;;;;;;15.77;3.92;;;;;;;;;;5023100;28;20462;-52
2022/01/18 03:47:45;;;;;;;16.52;3.45;;;;;;;;;;5020889;28;20040;-50
2022/01/18 03:50:13;;;;;;;13.57;3.17;;;;;;;;;;5023430;28;20105;-55
2022/01/18 03:52:40;;;;;;;13.30;3.20;;;;;;;;;;5022676;28;20025;-54
2022/01/18 03:55:07;;;;;;;16.05;4.10;;;;;;;;;;5023313;28;20038;-53
2022/01/18 03:57:33;;;;;;;10.10;3.45;;;;;;;;;;5020990;28;20033;-58
2022/01/18 03:59:58;;;;;;;12.82;3.45;;;;;;;;;;5021709;28;20041;-54
2022/01/18 04:02:24;;;;;;;17.13;3.60;;;;;;;;;;5020711;28;20075;-57
2022/01/18 04:04:49;;;;;;;14.43;3.80;;;;;;;;;;5020607;28;20034;-56
2022/01/18 04:07:14;;;;;;;17.60;4.57;;;;;;;;;;5020380;28;20028;-54
2022/01/18 04:09:40;;;;;;;19.73;3.55;;;;;;;;;;5019607;28;20084;-54
2022/01/18 04:12:07;;;;;;;14.77;4.70;;;;;;;;;;5020495;28;20029;-52
2022/01/18 04:14:32;;;;;;;14.50;3.65;;;;;;;;;;5019093;28;20026;-53
2022/01/18 04:27:27;;;;;;;13.93;3.65;;;;;;;;;;5022689;28;20037;-58
2022/01/18 04:29:53;;;;;;;14.15;3.78;;;;;;;;;;5024194;28;20026;-54
2022/01/18 04:32:18;;;;;;;11.80;3.00;;;;;;;;;;5027046;28;20094;-56
2022/01/18 04:34:44;;;;;;;12.52;3.78;;;;;;;;;;5024557;28;20381;-58
2022/01/18 04:37:09;;;;;;;14.57;3.63;;;;;;;;;;5026866;28;20024;-53
2022/01/18 04:39:39;;;;;;;13.30;3.22;;;;;;;;;;5024560;28;20026;-56
2022/01/18 04:42:12;;;;;;;9.00;2.83;;;;;;;;;;5025225;28;20033;-57
2022/01/18 04:50:06;;;;;;;12.27;2.88;;;;;;;;;;5022951;28;20040;-57
2022/01/18 04:52:31;;;;;;;15.50;4.10;;;;;;;;;;5027008;28;20033;-57
2022/01/18 04:55:00;;;;;;;13.70;3.13;;;;;;;;;;5025044;28;20025;-57
2022/01/18 05:00:10;;;;;;;15.75;3.17;;;;;;;;;;5024471;28;20067;-55
2022/01/18 05:02:35;;;;;;;11.80;3.60;;;;;;;;;;5025166;28;20033;-55
2022/01/18 05:05:00;;;;;;;11.55;2.92;;;;;;;;;;5024733;28;20390;-55
2022/01/18 05:07:26;;;;;;;10.63;3.10;;;;;;;;;;5025694;28;20039;-51
2022/01/18 05:09:53;;;;;;;10.35;3.10;;;;;;;;;;5023699;28;20030;-55
2022/01/18 05:12:29;;;;;;;14.20;3.40;;;;;;;;;;5026863;28;20026;-56
2022/01/18 05:14:55;;;;;;;10.48;2.90;;;;;;;;;;5024787;28;20433;-54
2022/01/18 05:20:00;;;;;;;16.33;3.30;;;;;;;;;;5010864;28;20010;-55
2022/01/18 05:25:28;;;;;;;16.63;3.30;;;;;;;;;;4968504;28;20034;-56
2022/01/18 05:27:54;;;;;;;14.65;3.22;;;;;;;;;;5011941;28;20128;-57
2022/01/18 05:30:20;;;;;;;15.55;3.53;;;;;;;;;;5024936;28;21118;-54
2022/01/18 05:32:45;;;;;;;10.40;3.60;;;;;;;;;;5025133;28;20135;-56
2022/01/18 05:35:11;;;;;;;9.98;3.45;;;;;;;;;;5024897;28;20555;-57
2022/01/18 05:37:36;;;;;;;12.90;3.30;;;;;;;;;;5023830;28;20037;-54
2022/01/18 05:40:02;;;;;;;9.77;3.67;;;;;;;;;;5024885;28;20025;-54
2022/01/18 05:42:28;;;;;;;11.90;3.58;;;;;;;;;;5024229;28;20029;-57
2022/01/18 05:44:53;;;;;;;11.57;3.65;;;;;;;;;;5025866;28;20040;-55
2022/01/18 05:47:18;;;;;;;16.30;3.85;;;;;;;;;;5021552;28;20041;-54
2022/01/18 05:49:44;;;;;;;15.93;4.82;;;;;;;;;;5025337;28;20469;-55
2022/01/18 05:52:09;;;;;;;15.00;4.18;;;;;;;;;;5022930;28;20044;-53
2022/01/18 05:54:35;;;;;;;13.95;3.92;;;;;;;;;;5024016;28;20105;-55
2022/01/18 05:57:00;;;;;;;12.98;3.83;;;;;;;;;;5023503;28;20029;-56
2022/01/18 05:59:34;;;;;;;12.50;3.78;;;;;;;;;;5021446;28;20438;-54
2022/01/18 06:02:03;;;;;;;16.48;4.30;;;;;;;;;;5025113;28;20029;-57
2022/01/18 06:07:13;;;;;;;15.20;3.72;;;;;;;;;;5023685;28;20045;-56
2022/01/18 06:09:38;;;;;;;13.48;3.63;;;;;;;;;;5014657;28;20474;-56
2022/01/18 06:12:04;;;;;;;13.77;3.45;;;;;;;;;;5023127;28;20044;-57
2022/01/18 06:14:29;;;;;;;18.02;4.40;;;;;;;;;;5024062;28;20033;-59
2022/01/18 06:16:55;;;;;;;14.43;3.38;;;;;;;;;;5024805;28;20037;-56
2022/01/18 06:19:20;;;;;;;10.20;3.40;;;;;;;;;;5023774;28;20059;-56
2022/01/18 06:21:45;;;;;;;12.23;4.10;;;;;;;;;;5024446;28;20061;-50
2022/01/18 06:24:11;;;;;;;11.95;3.67;;;;;;;;;;5022007;28;20029;-56
2022/01/18 06:26:37;;;;;;;12.88;4.18;;;;;;;;;;5023764;28;20044;-55
2022/01/18 06:29:03;;;;;;;13.60;3.97;;;;;;;;;;5006409;28;20034;-54
2022/01/18 06:31:29;;;;;;;15.18;4.13;;;;;;;;;;5022028;28;20058;-53
2022/01/18 06:33:55;;;;;;;12.02;3.75;;;;;;;;;;5023597;28;20041;-54
2022/01/18 06:36:20;;;;;;;12.75;4.13;;;;;;;;;;5006081;28;20049;-55
2022/01/18 06:38:46;;;;;;;14.63;4.45;;;;;;;;;;5021376;28;20048;-57
2022/01/18 06:41:11;;;;;;;12.93;3.33;;;;;;;;;;5022653;28;20178;-53
2022/01/18 06:43:37;;;;;;;10.55;3.13;;;;;;;;;;5021974;28;20377;-51
2022/01/18 06:46:02;;;;;;;11.93;3.50;;;;;;;;;;5025041;28;20469;-56
2022/01/18 06:48:28;;;;;;;8.18;3.25;;;;;;;;;;5021379;28;20025;-52
2022/01/18 06:50:53;;;;;;;13.60;3.50;;;;;;;;;;5023377;28;20078;-53
2022/01/18 06:53:19;;;;;;;11.43;3.33;;;;;;;;;;5020984;28;20405;-55
2022/01/18 06:55:51;;;;;;;12.43;3.75;;;;;;;;;;5023389;28;20025;-56
2022/01/18 06:58:16;;;;;;;13.48;3.70;;;;;;;;;;5020292;28;20517;-53
2022/01/18 07:00:42;;;;;;;13.45;3.72;;;;;;;;;;5010909;28;20144;-50
2022/01/18 07:03:07;;;;;;;13.77;4.57;;;;;;;;;;5023701;28;20021;-55
2022/01/18 07:05:33;;;;;;;11.25;4.15;;;;;;;;;;5021122;28;21235;-53
2022/01/18 07:07:58;;;;;;;14.73;4.47;;;;;;;;;;5022796;28;20343;-52
2022/01/18 07:10:25;;;;;;;15.70;3.58;;;;;;;;;;5005374;28;20040;-52
2022/01/18 07:12:50;;;;;;;16.70;4.68;;;;;;;;;;5023555;28;20033;-54
2022/01/18 07:15:16;;;;;;;11.73;3.63;;;;;;;;;;5020814;28;20114;-52
2022/01/18 07:17:41;;;;;;;11.50;3.88;;;;;;;;;;5023349;28;20105;-57
2022/01/18 07:20:08;;;;;;;10.15;3.80;;;;;;;;;;5006056;28;20032;-53
2022/01/18 07:22:34;;;;;;;15.32;4.45;;;;;;;;;;5022355;28;20139;-54
2022/01/18 07:25:01;;;;;;;11.13;4.10;;;;;;;;;;5022906;28;21171;-51
2022/01/18 07:27:27;;;;;;;18.25;4.43;;;;;;;;;;4991883;28;20113;-53
2022/01/18 07:29:52;;;;;;;9.05;3.75;;;;;;;;;;5021339;28;20172;-54
2022/01/18 07:32:20;;;;;;;12.20;4.72;;;;;;;;;;5022613;28;20114;-52
2022/01/18 07:34:51;;;;;;;15.13;4.70;;;;;;;;;;5021016;28;20033;-52
2022/01/18 07:37:17;;;;;;;14.68;4.40;;;;;;;;;;5023351;28;20033;-53
2022/01/18 07:39:43;;;;;;;16.88;4.82;;;;;;;;;;5005201;28;20029;-55
2022/01/18 07:42:09;;;;;;;15.30;4.43;;;;;;;;;;5009392;28;20029;-60
2022/01/18 07:44:34;;;;;;;15.45;4.55;;;;;;;;;;5023707;28;20033;-53
2022/01/18 07:47:00;;;;;;;14.60;3.63;;;;;;;;;;5005809;28;20424;-56
2022/01/18 07:49:25;;;;;;;10.25;3.60;;;;;;;;;;5020354;28;20028;-55
2022/01/18 07:51:51;;;;;;;13.05;4.10;;;;;;;;;;5022237;28;20037;-54
2022/01/18 07:54:17;;;;;;;12.13;4.32;;;;;;;;;;5020717;28;20049;-53
2022/01/18 07:56:44;;;;;;;12.70;3.47;;;;;;;;;;5020387;28;20041;-55
2022/01/18 07:59:09;;;;;;;11.02;3.65;;;;;;;;;;5017612;28;20022;-51
2022/01/18 08:01:35;;;;;;;15.50;3.65;;;;;;;;;;5023441;28;20044;-53
2022/01/18 08:04:00;;;;;;;14.45;4.32;;;;;;;;;;5025925;28;20051;-54
2022/01/18 08:06:26;;;;;;;10.77;3.28;;;;;;;;;;5023756;28;20037;-55
2022/01/18 08:08:51;;;;;;;9.35;3.20;;;;;;;;;;5024517;28;20033;-53
2022/01/18 08:11:16;;;;;;;14.38;4.63;;;;;;;;;;5025484;28;20041;-55
2022/01/18 08:13:46;;;;;;;15.77;3.63;;;;;;;;;;5025778;28;20029;-57
2022/01/18 08:19:14;;;;;;;9.60;2.90;;;;;;;;;;4983265;28;20027;-56
2022/01/18 08:21:39;;;;;;;12.82;2.90;;;;;;;;;;5017948;28;20481;-57
2022/01/18 08:24:05;;;;;;;11.00;3.22;;;;;;;;;;5023542;28;20037;-55
2022/01/18 08:26:30;;;;;;;11.43;3.65;;;;;;;;;;5024984;28;20127;-50
2022/01/18 08:28:55;;;;;;;11.05;3.22;;;;;;;;;;5021523;28;20029;-56
2022/01/18 08:31:21;;;;;;;13.82;3.13;;;;;;;;;;5024388;28;20335;-53
2022/01/18 08:33:46;;;;;;;8.85;3.05;;;;;;;;;;5025985;28;20057;-55
2022/01/18 08:36:12;;;;;;;8.50;2.92;;;;;;;;;;5021488;28;20025;-54
2022/01/18 08:38:39;;;;;;;11.50;2.97;;;;;;;;;;5023338;28;20029;-56
2022/01/18 08:41:05;;;;;;;12.20;3.25;;;;;;;;;;5022637;28;20075;-52
2022/01/18 08:43:31;;;;;;;12.10;3.08;;;;;;;;;;5022401;28;20085;-58
2022/01/18 08:46:00;;;;;;;14.45;3.85;;;;;;;;;;5024831;28;20082;-57
2022/01/18 08:48:26;;;;;;;11.05;3.83;;;;;;;;;;5021844;28;20064;-51
2022/01/18 08:50:51;;;;;;;13.05;3.72;;;;;;;;;;5023486;28;20033;-54
2022/01/18 08:53:17;;;;;;;12.60;3.45;;;;;;;;;;5022671;28;20179;-52
2022/01/18 08:55:42;;;;;;;14.23;3.53;;;;;;;;;;5021363;28;20081;-56
2022/01/18 08:58:08;;;;;;;12.30;3.25;;;;;;;;;;5021621;28;20087;-58
2022/01/18 09:00:34;;;;;;;12.32;3.17;;;;;;;;;;5022145;28;20116;-53
2022/01/18 09:03:00;;;;;;;14.73;3.75;;;;;;;;;;5020233;28;20219;-55
2022/01/18 09:05:26;;;;;;;13.48;3.92;;;;;;;;;;5022152;28;20034;-54
2022/01/18 09:07:52;;;;;;;12.95;3.90;;;;;;;;;;5022950;28;20782;-55
2022/01/18 09:10:24;;;;;;;13.25;4.15;;;;;;;;;;5023799;28;20045;-56
2022/01/18 09:12:50;;;;;;;8.37;3.37;;;;;;;;;;5023164;28;21408;-54
2022/01/18 09:15:15;;;;;;;11.07;4.22;;;;;;;;;;5023417;28;20123;-53
2022/01/18 09:17:42;;;;;;;9.52;3.08;;;;;;;;;;5026181;28;20032;-53
2022/01/18 09:20:10;;;;;;;11.23;3.53;;;;;;;;;;5023342;28;20142;-54
2022/01/18 09:22:40;;;;;;;10.43;3.85;;;;;;;;;;5024967;28;20121;-56
2022/01/18 09:25:10;;;;;;;18.70;4.55;;;;;;;;;;5023650;28;20494;-52
2022/01/18 09:27:36;;;;;;;14.57;4.30;;;;;;;;;;5024555;28;20044;-56
2022/01/18 09:30:02;;;;;;;16.33;4.18;;;;;;;;;;5023422;28;20494;-51
2022/01/18 09:32:27;;;;;;;15.63;4.57;;;;;;;;;;5023131;28;20445;-54
2022/01/18 09:34:53;;;;;;;12.50;4.38;;;;;;;;;;5024504;28;20099;-53
2022/01/18 09:37:18;;;;;;;8.30;3.88;;;;;;;;;;5021458;28;20471;-55
2022/01/18 09:39:44;;;;;;;11.88;4.22;;;;;;;;;;5025266;28;20509;-54
2022/01/18 09:42:11;;;;;;;12.35;3.95;;;;;;;;;;5023185;28;20030;-54
2022/01/18 09:44:37;;;;;;;10.25;3.58;;;;;;;;;;5022528;28;20026;-53
2022/01/18 09:47:03;;;;;;;16.00;4.07;;;;;;;;;;5022732;28;21218;-56
2022/01/18 09:49:29;;;;;;;11.40;3.67;;;;;;;;;;5025604;28;20034;-58
2022/01/18 09:51:54;;;;;;;18.00;4.38;;;;;;;;;;5023014;28;20033;-53
2022/01/18 09:54:20;;;;;;;14.82;4.40;;;;;;;;;;5023052;28;20026;-56
2022/01/18 09:56:45;;;;;;;17.05;3.78;;;;;;;;;;5022910;28;20647;-57
2022/01/18 09:59:10;;;;;;;10.40;3.50;;;;;;;;;;5022229;28;20052;-53
2022/01/18 10:01:36;;;;;;;10.93;3.65;;;;;;;;;;5022551;28;20049;-55
2022/01/18 10:04:20;;;;;;;14.57;3.80;;;;;;;;;;5022271;28;20037;-53
2022/01/18 10:06:51;;;;;;;13.43;4.03;;;;;;;;;;5022535;28;20034;-56
2022/01/18 10:09:18;;;;;;;16.35;4.00;;;;;;;;;;5021898;28;20470;-55
2022/01/18 10:12:10;;;;;;;14.15;3.95;;;;;;;;;;5024192;28;20037;-56
2022/01/18 10:14:41;;;;;;;10.10;3.72;;;;;;;;;;5021649;28;20029;-53
2022/01/18 10:17:09;;;;;;;10.30;3.65;;;;;;;;;;5021803;28;20096;-56
2022/01/18 10:19:50;;;;;;;11.73;3.75;;;;;;;;;;5022019;28;20018;-51
2022/01/18 10:22:24;;;;;;;7.68;3.42;;;;;;;;;;5022089;28;21370;-57
2022/01/18 10:24:52;;;;;;;8.68;3.70;;;;;;;;;;5021769;28;20035;-57
2022/01/18 10:27:18;;;;;;;14.55;3.83;;;;;;;;;;5020156;28;20029;-53
2022/01/18 10:29:47;;;;;;;9.35;3.63;;;;;;;;;;5022224;28;20029;-53
2022/01/18 10:32:39;;;;;;;8.88;3.05;;;;;;;;;;5021999;28;21193;-57
2022/01/18 10:35:07;;;;;;;9.10;3.30;;;;;;;;;;5023131;28;20064;-56
2022/01/18 10:37:34;;;;;;;11.23;3.58;;;;;;;;;;5019374;28;20026;-57
2022/01/18 10:40:26;;;;;;;7.70;3.00;;;;;;;;;;5022967;28;20087;-51
2022/01/18 10:42:53;;;;;;;10.52;3.08;;;;;;;;;;5021435;28;20099;-53
2022/01/18 10:45:31;;;;;;;11.93;2.92;;;;;;;;;;5025123;28;20029;-54
2022/01/18 10:48:04;;;;;;;8.27;2.80;;;;;;;;;;5024272;28;20057;-54
2022/01/18 10:50:38;;;;;;;9.68;3.08;;;;;;;;;;5024551;28;20041;-53
2022/01/18 10:53:29;;;;;;;8.20;2.63;;;;;;;;;;5021192;28;20038;-55
2022/01/18 10:56:13;;;;;;;8.77;3.13;;;;;;;;;;5020980;28;20118;-56
2022/01/18 10:58:52;;;;;;;8.93;2.70;;;;;;;;;;5021635;28;20056;-57
2022/01/18 11:01:19;;;;;;;9.85;2.60;;;;;;;;;;5024144;28;20037;-58
2022/01/18 11:04:12;;;;;;;11.15;3.22;;;;;;;;;;5022435;28;20065;-57
2022/01/18 11:06:55;;;;;;;8.82;2.80;;;;;;;;;;5018405;28;20195;-57
2022/01/18 11:09:21;;;;;;;8.20;2.67;;;;;;;;;;5024132;28;20033;-54
2022/01/18 11:11:48;;;;;;;7.75;2.35;;;;;;;;;;5022980;28;20097;-57
2022/01/18 11:14:20;;;;;;;8.32;1.73;;;;;;;;;;5021387;28;20028;-54
2022/01/18 11:16:47;;;;;;;7.73;2.20;;;;;;;;;;5023611;28;20102;-53
2022/01/18 11:19:36;;;;;;;4.18;1.60;;;;;;;;;;5023006;28;20246;-57
2022/01/18 11:22:10;;;;;;;4.90;2.13;;;;;;;;;;5022508;28;20048;-53
2022/01/18 11:24:37;;;;;;;5.90;1.45;;;;;;;;;;5022290;28;20029;-54
2022/01/18 11:27:08;;;;;;;2.72;1.30;;;;;;;;;;5018908;28;20148;-56
2022/01/18 11:29:35;;;;;;;4.15;1.40;;;;;;;;;;5022012;28;20033;-57
2022/01/18 11:32:01;;;;;;;8.73;1.70;;;;;;;;;;5023310;28;20481;-57
2022/01/18 11:34:42;;;;;;;4.75;2.10;;;;;;;;;;5024688;28;20037;-53
2022/01/18 11:37:26;;;;;;;8.35;2.25;;;;;;;;;;5021733;28;20029;-54
2022/01/18 11:40:00;;;;;;;7.10;2.63;;;;;;;;;;5018253;28;20026;-56
2022/01/18 11:42:51;;;;;;;4.70;2.50;;;;;;;;;;5012382;28;20491;-54
2022/01/18 11:45:26;;;;;;;7.65;3.10;;;;;;;;;;5019330;28;20030;-53
2022/01/18 11:48:01;;;;;;;7.88;3.00;;;;;;;;;;5020298;28;20182;-53
2022/01/18 11:50:28;;;;;;;9.73;4.25;;;;;;;;;;5023085;28;20036;-53
2022/01/18 11:53:25;;;;;;;9.27;3.10;;;;;;;;;;5021276;28;20083;-53
2022/01/18 11:55:53;;;;;;;10.88;5.00;;;;;;;;;;5022486;28;20033;-55
2022/01/18 11:58:18;;;;;;;5.47;1.92;;;;;;;;;;5019297;28;20040;-55
2022/01/18 12:00:51;;;;;;;6.25;1.80;;;;;;;;;;5023295;28;20745;-55
2022/01/18 12:03:22;;;;;;;5.85;1.80;;;;;;;;;;5020400;28;20056;-56
2022/01/18 12:05:49;;;;;;;4.80;1.63;;;;;;;;;;5020816;28;20029;-57
2022/01/18 12:08:34;;;;;;;5.82;1.48;;;;;;;;;;5022593;28;20040;-58
2022/01/18 12:11:04;;;;;;;4.60;1.73;;;;;;;;;;5023417;28;20386;-56
2022/01/18 12:13:33;;;;;;;3.35;1.60;;;;;;;;;;5019898;28;20098;-55
2022/01/18 12:16:00;;;;;;;3.67;1.35;;;;;;;;;;5023334;28;20390;-54
2022/01/18 12:18:31;;;;;;;9.18;2.22;;;;;;;;;;5020633;28;21245;-60
2022/01/18 12:21:08;;;;;;;7.75;1.75;;;;;;;;;;5022740;28;20030;-56
2022/01/18 12:23:34;;;;;;;8.02;1.92;;;;;;;;;;5022824;28;20038;-53
2022/01/18 12:26:16;;;;;;;5.75;2.00;;;;;;;;;;5023059;28;20203;-53
2022/01/18 12:34:28;;;;;;;3.72;1.30;;;;;;;;;;5021278;28;20395;-55
2022/01/18 12:37:16;;;;;;;5.38;1.48;;;;;;;;;;5020278;28;20032;-54
2022/01/18 12:39:51;;;;;;;5.82;1.50;;;;;;;;;;5006818;28;20075;-52
2022/01/18 12:44:20;;;;;;;6.38;1.70;;;;;;;;;;5021879;28;20029;-56
2022/01/18 12:45:05;;;;;;;6.13;1.52;;;;;;;;;;5019304;28;20524;-53
2022/01/18 12:47:31;;;;;;;4.32;1.25;;;;;;;;;;5020891;28;20406;-52
2022/01/18 12:49:57;;;;;;;6.88;1.60;;;;;;;;;;5024709;28;20034;-53
2022/01/18 12:52:22;;;;;;;4.50;1.33;;;;;;;;;;5024754;28;20033;-52
2022/01/18 12:54:49;;;;;;;2.47;1.33;;;;;;;;;;5009918;28;20108;-52
2022/01/18 12:57:22;;;;;;;3.63;1.17;;;;;;;;;;5023229;28;20045;-51
2022/01/18 12:59:57;;;;;;;4.82;1.20;;;;;;;;;;5024073;28;20048;-52
2022/01/18 13:02:23;;;;;;;5.07;1.10;;;;;;;;;;5023109;28;20052;-53
2022/01/18 13:04:58;;;;;;;4.28;1.40;;;;;;;;;;5023616;28;20132;-54
2022/01/18 13:07:25;;;;;;;3.67;1.33;;;;;;;;;;5023751;28;20139;-52
2022/01/18 13:09:58;;;;;;;4.28;1.63;;;;;;;;;;5023003;28;21179;-54
2022/01/18 13:12:31;;;;;;;8.07;2.25;;;;;;;;;;5023900;28;20106;-52
2022/01/18 13:14:59;;;;;;;5.65;2.35;;;;;;;;;;5021567;28;20390;-55
2022/01/18 13:23:44;;;;;;;6.97;3.35;;;;;;;;;;5025519;28;20079;-55
2022/01/18 13:26:10;;;;;;;11.75;3.50;;;;;;;;;;5023067;28;20013;-55
2022/01/18 13:28:37;;;;;;;7.50;2.72;;;;;;;;;;5022699;28;20029;-55
2022/01/18 13:31:22;;;;;;;8.10;3.30;;;;;;;;;;5025641;28;20030;-50
2022/01/18 13:33:51;;;;;;;6.50;2.70;;;;;;;;;;5026790;28;20033;-57
2022/01/18 13:36:17;;;;;;;4.75;2.75;;;;;;;;;;5026115;28;20036;-55
2022/01/18 13:38:42;;;;;;;9.82;2.35;;;;;;;;;;5025500;28;20025;-57
2022/01/18 13:41:08;;;;;;;4.53;1.65;;;;;;;;;;5024937;28;20052;-52
2022/01/18 13:43:33;;;;;;;6.63;1.90;;;;;;;;;;5022996;28;20131;-56
2022/01/18 13:45:59;;;;;;;8.43;2.10;;;;;;;;;;5021846;28;20172;-56
2022/01/18 13:48:33;;;;;;;6.28;1.52;;;;;;;;;;5008621;28;20041;-50
2022/01/18 13:51:07;;;;;;;3.67;1.15;;;;;;;;;;5023998;28;20374;-56
2022/01/18 13:53:34;;;;;;;4.25;1.50;;;;;;;;;;5008684;28;20041;-56
2022/01/18 13:56:11;;;;;;;5.35;1.33;;;;;;;;;;5024527;28;20472;-56
2022/01/18 13:58:47;;;;;;;4.00;1.50;;;;;;;;;;5021803;28;20018;-56
2022/01/18 14:01:14;;;;;;;3.60;1.67;;;;;;;;;;5025430;28;20028;-55
2022/01/18 14:03:42;;;;;;;5.70;1.95;;;;;;;;;;5022742;28;20104;-57
2022/01/18 14:06:09;;;;;;;4.95;1.50;;;;;;;;;;5023882;28;20132;-57
2022/01/18 14:08:51;;;;;;;3.80;1.70;;;;;;;;;;5024385;28;20197;-54
2022/01/18 14:11:19;;;;;;;3.53;1.67;;;;;;;;;;5024524;28;20060;-58
2022/01/18 14:13:45;;;;;;;4.45;1.63;;;;;;;;;;5020993;28;20083;-58
2022/01/18 14:16:33;;;;;;;3.65;1.38;;;;;;;;;;5009900;28;20389;-59
2022/01/18 14:19:10;;;;;;;2.38;1.42;;;;;;;;;;5023872;28;20454;-54
2022/01/18 14:21:42;;;;;;;3.25;1.33;;;;;;;;;;5039688;28;20029;-58
2022/01/18 14:24:11;;;;;;;2.47;1.30;;;;;;;;;;5024157;28;20033;-56
2022/01/18 14:26:37;;;;;;;2.83;1.17;;;;;;;;;;5020486;28;20041;-57
2022/01/18 14:29:04;;;;;;;2.08;1.17;;;;;;;;;;5024483;28;20066;-57
2022/01/18 14:31:29;;;;;;;4.72;1.30;;;;;;;;;;5025257;28;20025;-56
2022/01/18 14:33:55;;;;;;;4.60;1.38;;;;;;;;;;5024581;28;20108;-54
2022/01/18 14:36:20;;;;;;;4.53;1.40;;;;;;;;;;5023251;28;20436;-55
2022/01/18 14:38:46;;;;;;;7.05;1.27;;;;;;;;;;5022810;28;20048;-59
2022/01/18 14:41:23;;;;;;;5.43;1.58;;;;;;;;;;5024433;28;20021;-59
2022/01/18 14:43:53;;;;;;;5.57;2.45;;;;;;;;;;5022736;28;20033;-59
2022/01/18 14:46:25;;;;;;;4.85;1.70;;;;;;;;;;5022865;28;20366;-58
2022/01/18 14:48:53;;;;;;;5.30;1.80;;;;;;;;;;5022811;28;20350;-57
2022/01/18 14:51:19;;;;;;;3.20;1.67;;;;;;;;;;5024889;28;20048;-56
2022/01/18 14:53:44;;;;;;;5.22;2.13;;;;;;;;;;5020399;28;20383;-62
2022/01/18 14:56:10;;;;;;;7.07;2.00;;;;;;;;;;5024139;28;20112;-54
2022/01/18 14:58:36;;;;;;;11.13;2.03;;;;;;;;;;5024074;28;20040;-59
2022/01/18 15:01:04;;;;;;;5.43;2.05;;;;;;;;;;5024100;28;20018;-57
2022/01/18 15:03:29;;;;;;;4.32;1.92;;;;;;;;;;5021767;28;20480;-59
2022/01/18 15:05:54;;;;;;;5.13;1.90;;;;;;;;;;5023381;28;20021;-58
2022/01/18 15:08:22;;;;;;;3.13;2.00;;;;;;;;;;5021264;28;20503;-59
2022/01/18 15:10:47;;;;;;;6.93;2.00;;;;;;;;;;5021962;28;20030;-58
2022/01/18 15:13:13;;;;;;;2.53;1.58;;;;;;;;;;5023274;28;20095;-59
2022/01/18 15:15:38;;;;;;;4.18;1.67;;;;;;;;;;5021602;28;20059;-58
2022/01/18 15:18:04;;;;;;;4.93;1.80;;;;;;;;;;5023174;28;20021;-59
2022/01/18 15:20:30;;;;;;;12.43;2.15;;;;;;;;;;5024990;28;20120;-58
2022/01/18 15:22:56;;;;;;;3.85;2.00;;;;;;;;;;5024164;28;20029;-56
2022/01/18 15:25:22;;;;;;;4.57;1.90;;;;;;;;;;5024434;28;20123;-58
2022/01/18 15:27:49;;;;;;;5.15;2.10;;;;;;;;;;5024475;28;20112;-58
2022/01/18 15:30:16;;;;;;;9.13;2.45;;;;;;;;;;5022766;28;20553;-57
2022/01/18 15:32:43;;;;;;;9.77;2.08;;;;;;;;;;5021123;28;20378;-54
2022/01/18 15:35:11;;;;;;;7.68;2.90;;;;;;;;;;5022193;28;20032;-56
2022/01/18 15:37:38;;;;;;;8.55;2.72;;;;;;;;;;5021745;28;20081;-56
2022/01/18 15:40:06;;;;;;;6.18;2.72;;;;;;;;;;5022278;28;20034;-60
2022/01/18 15:42:34;;;;;;;6.13;2.42;;;;;;;;;;5021458;28;20033;-58
2022/01/18 15:45:00;;;;;;;11.73;2.70;;;;;;;;;;5021656;28;20040;-60
2022/01/18 15:47:25;;;;;;;4.35;2.50;;;;;;;;;;5020714;28;20040;-56
2022/01/18 15:49:51;;;;;;;6.28;2.20;;;;;;;;;;5021699;28;20361;-57
2022/01/18 15:52:16;;;;;;;9.30;2.22;;;;;;;;;;5007266;28;20038;-56
2022/01/18 15:54:42;;;;;;;6.47;2.38;;;;;;;;;;5022773;28;20095;-54
2022/01/18 15:57:07;;;;;;;4.18;2.35;;;;;;;;;;5022645;28;20038;-57
2022/01/18 15:59:43;;;;;;;8.70;2.33;;;;;;;;;;5006942;28;20493;-56
2022/01/18 16:02:09;;;;;;;8.23;2.25;;;;;;;;;;5021014;28;20033;-57
2022/01/18 16:04:35;;;;;;;4.40;2.28;;;;;;;;;;5002903;28;20922;-58
2022/01/18 16:07:01;;;;;;;4.07;2.30;;;;;;;;;;5023056;28;20033;-57
2022/01/18 16:09:27;;;;;;;9.73;2.53;;;;;;;;;;5023966;28;20031;-59